createdAt,value
2016-12-24T00:00:45.963Z,0
2016-12-24T00:02:19.642Z,0
2016-12-24T00:03:54.376Z,0
2016-12-24T00:05:27.976Z,0
2016-12-24T00:07:02.261Z,0
2016-12-24T00:08:36.025Z,0
2016-12-24T00:10:10.118Z,0
2016-12-24T00:12:02.960Z,0
2016-12-24T00:13:37.902Z,0
2016-12-24T00:15:11.624Z,0
2016-12-24T00:17:13.584Z,0
2016-12-24T00:18:47.492Z,0
2016-12-24T00:20:21.577Z,0
2016-12-24T00:21:55.872Z,0
2016-12-24T00:23:29.829Z,0
2016-12-24T00:25:03.411Z,0
2016-12-24T00:26:36.720Z,0
2016-12-24T00:28:12.766Z,0
2016-12-24T00:29:47.044Z,0
2016-12-24T00:31:20.614Z,0
2016-12-24T00:32:54.061Z,0
2016-12-24T00:34:46.949Z,0
2016-12-24T00:36:21.380Z,0
2016-12-24T00:37:56.080Z,0
2016-12-24T00:39:29.859Z,0
2016-12-24T00:41:04.432Z,0
2016-12-24T00:42:39.025Z,0
2016-12-24T00:44:08.358Z,0
2016-12-24T00:45:42.218Z,0
2016-12-24T00:47:15.638Z,0
2016-12-24T00:48:49.392Z,0
2016-12-24T00:50:23.695Z,0
2016-12-24T00:52:04.496Z,0
2016-12-24T00:53:37.778Z,0
2016-12-24T00:55:11.083Z,0
2016-12-24T00:57:04.094Z,0
2016-12-24T00:58:37.865Z,0
2016-12-24T01:00:11.329Z,0
2016-12-24T01:01:44.597Z,0
2016-12-24T01:03:18.549Z,0
2016-12-24T01:04:52.058Z,0
2016-12-24T01:06:26.268Z,0
2016-12-24T01:07:59.583Z,0
2016-12-24T01:09:33.223Z,0
2016-12-24T01:11:06.720Z,0
2016-12-24T01:12:40.732Z,0
2016-12-24T01:14:13.991Z,0
2016-12-24T01:15:47.578Z,0
2016-12-24T01:17:46.344Z,0
2016-12-24T01:19:20.075Z,0
2016-12-24T01:20:54.027Z,0
2016-12-24T01:22:27.635Z,0
2016-12-24T01:24:01.315Z,0
2016-12-24T01:25:34.907Z,0
2016-12-24T01:27:09.088Z,0
2016-12-24T01:28:42.385Z,0
2016-12-24T01:30:15.861Z,0
2016-12-24T01:31:49.767Z,0
2016-12-24T01:33:23.327Z,0
2016-12-24T01:34:56.922Z,0
2016-12-24T01:36:30.196Z,0
2016-12-24T01:38:03.695Z,0
2016-12-24T01:39:37.552Z,0
2016-12-24T01:41:30.743Z,0
2016-12-24T01:42:59.814Z,0
2016-12-24T01:44:14.288Z,0
2016-12-24T01:46:10.832Z,0
2016-12-24T01:47:44.869Z,0
2016-12-24T01:49:18.559Z,0
2016-12-24T01:50:51.854Z,0
2016-12-24T01:52:25.677Z,0
2016-12-24T01:53:59.300Z,0
2016-12-24T01:55:32.993Z,0
2016-12-24T01:57:06.343Z,0
2016-12-24T01:58:40.146Z,0
2016-12-24T02:00:13.437Z,0
2016-12-24T02:01:47.346Z,0
2016-12-24T02:03:21.024Z,0
2016-12-24T02:04:55.484Z,0
2016-12-24T02:06:31.214Z,0
2016-12-24T02:08:04.717Z,0
2016-12-24T02:09:57.316Z,0
2016-12-24T02:11:31.544Z,0
2016-12-24T02:13:05.727Z,0
2016-12-24T02:14:39.458Z,0
2016-12-24T02:16:12.780Z,0
2016-12-24T02:17:46.703Z,0
2016-12-24T02:19:20.358Z,0
2016-12-24T02:20:53.905Z,0
2016-12-24T02:22:22.545Z,0
2016-12-24T02:23:56.111Z,0
2016-12-24T02:25:29.790Z,0
2016-12-24T02:27:03.555Z,0
2016-12-24T02:28:36.913Z,0
2016-12-24T02:30:11.145Z,0
2016-12-24T02:31:40.355Z,0
2016-12-24T02:33:13.659Z,0
2016-12-24T02:34:47.053Z,0
2016-12-24T02:36:20.953Z,0
2016-12-24T02:38:22.051Z,0
2016-12-24T02:39:56.130Z,0
2016-12-24T02:41:30.062Z,0
2016-12-24T02:43:03.749Z,0
2016-12-24T02:44:37.409Z,0
2016-12-24T02:46:11.019Z,0
2016-12-24T02:47:45.187Z,0
2016-12-24T02:49:18.468Z,0
2016-12-24T02:50:53.025Z,0
2016-12-24T02:52:26.520Z,0
2016-12-24T02:54:00.131Z,0
2016-12-24T02:55:33.786Z,0
2016-12-24T02:57:02.199Z,0
2016-12-24T02:59:03.237Z,0
2016-12-24T03:00:36.856Z,0
2016-12-24T03:02:10.165Z,0
2016-12-24T03:03:43.735Z,0
2016-12-24T03:05:17.283Z,0
2016-12-24T03:06:46.386Z,0
2016-12-24T03:08:00.834Z,0
2016-12-24T03:09:53.307Z,0
2016-12-24T03:11:26.708Z,0
2016-12-24T03:13:00.750Z,0
2016-12-24T03:14:34.528Z,0
2016-12-24T03:16:07.877Z,0
2016-12-24T03:17:41.800Z,0
2016-12-24T03:19:16.265Z,0
2016-12-24T03:20:49.975Z,0
2016-12-24T03:22:23.611Z,0
2016-12-24T03:23:57.988Z,0
2016-12-24T03:25:31.790Z,0
2016-12-24T03:26:59.955Z,0
2016-12-24T03:28:28.302Z,0
2016-12-24T03:30:02.204Z,0
2016-12-24T03:31:36.051Z,0
2016-12-24T03:33:09.385Z,0
2016-12-24T03:34:42.833Z,0
2016-12-24T03:36:16.127Z,0
2016-12-24T03:37:50.231Z,0
2016-12-24T03:39:23.635Z,0
2016-12-24T03:40:56.873Z,0
2016-12-24T03:42:30.158Z,0
2016-12-24T03:44:06.358Z,0
2016-12-24T03:45:39.910Z,0
2016-12-24T03:47:13.155Z,0
2016-12-24T03:48:46.831Z,0
2016-12-24T03:50:20.687Z,0
2016-12-24T03:51:54.223Z,0
2016-12-24T03:53:27.496Z,0
2016-12-24T03:55:00.849Z,0
2016-12-24T03:57:01.905Z,0
2016-12-24T03:58:36.054Z,0
2016-12-24T04:00:09.774Z,0
2016-12-24T04:01:43.192Z,0
2016-12-24T04:03:17.088Z,0
2016-12-24T04:04:50.355Z,0
2016-12-24T04:06:43.410Z,0
2016-12-24T04:08:16.978Z,0
2016-12-24T04:09:50.945Z,0
2016-12-24T04:11:24.795Z,0
2016-12-24T04:12:58.620Z,0
2016-12-24T04:14:31.917Z,0
2016-12-24T04:16:05.503Z,0
2016-12-24T04:17:39.165Z,0
2016-12-24T04:19:13.071Z,0
2016-12-24T04:20:46.415Z,0
2016-12-24T04:22:19.937Z,0
2016-12-24T04:23:53.549Z,0
2016-12-24T04:25:26.787Z,0
2016-12-24T04:26:55.198Z,0
2016-12-24T04:28:09.886Z,0
2016-12-24T04:29:39.780Z,0
2016-12-24T04:31:13.698Z,0
2016-12-24T04:32:46.942Z,0
2016-12-24T04:34:20.815Z,0
2016-12-24T04:35:54.167Z,0
2016-12-24T04:37:27.738Z,0
2016-12-24T04:39:20.286Z,0
2016-12-24T04:40:53.925Z,0
2016-12-24T04:42:28.105Z,0
2016-12-24T04:44:01.817Z,0
2016-12-24T04:45:35.467Z,0
2016-12-24T04:47:09.098Z,0
2016-12-24T04:48:43.411Z,0
2016-12-24T04:50:17.422Z,0
2016-12-24T04:51:50.743Z,0
2016-12-24T04:53:24.437Z,0
2016-12-24T04:54:58.297Z,0
2016-12-24T04:56:31.620Z,0
2016-12-24T04:58:00.347Z,0
2016-12-24T04:59:34.124Z,0
2016-12-24T05:01:07.849Z,0
2016-12-24T05:02:41.383Z,0
2016-12-24T05:04:14.895Z,0
2016-12-24T05:05:48.895Z,0
2016-12-24T05:07:22.443Z,0
2016-12-24T05:08:57.538Z,0
2016-12-24T05:10:30.893Z,0
2016-12-24T05:12:04.559Z,0
2016-12-24T05:13:37.859Z,0
2016-12-24T05:15:31.094Z,0
2016-12-24T05:17:05.338Z,0
2016-12-24T05:18:38.939Z,0
2016-12-24T05:20:12.479Z,0
2016-12-24T05:21:48.433Z,0
2016-12-24T05:23:21.879Z,0
2016-12-24T05:24:55.906Z,0
2016-12-24T05:26:30.348Z,0
2016-12-24T05:28:03.883Z,0
2016-12-24T05:29:37.199Z,0
2016-12-24T05:31:10.836Z,0
2016-12-24T05:32:44.324Z,0
2016-12-24T05:34:37.350Z,0
2016-12-24T05:36:10.631Z,0
2016-12-24T05:37:44.538Z,0
2016-12-24T05:39:19.049Z,0
2016-12-24T05:40:52.694Z,0
2016-12-24T05:42:27.219Z,0
2016-12-24T05:44:00.789Z,0
2016-12-24T05:45:34.103Z,0
2016-12-24T05:47:07.663Z,0
2016-12-24T05:48:41.234Z,0
2016-12-24T05:50:15.462Z,0
2016-12-24T05:51:48.814Z,0
2016-12-24T05:53:22.207Z,0
2016-12-24T05:54:55.461Z,0
2016-12-24T05:56:29.908Z,0
2016-12-24T05:58:03.179Z,0
2016-12-24T05:59:37.025Z,0
2016-12-24T06:01:30.122Z,0
2016-12-24T06:03:11.983Z,0
2016-12-24T06:04:45.796Z,0
2016-12-24T06:06:19.118Z,0
2016-12-24T06:07:52.706Z,0
2016-12-24T06:09:46.051Z,0
2016-12-24T06:11:19.332Z,0
2016-12-24T06:12:48.247Z,0
2016-12-24T06:14:02.846Z,0
2016-12-24T06:15:37.092Z,0
2016-12-24T06:17:10.378Z,0
2016-12-24T06:18:43.779Z,0
2016-12-24T06:20:13.956Z,0
2016-12-24T06:21:47.769Z,0
2016-12-24T06:23:21.497Z,0
2016-12-24T06:24:55.341Z,0
2016-12-24T06:26:28.946Z,0
2016-12-24T06:27:58.711Z,0
2016-12-24T06:29:32.745Z,0
2016-12-24T06:31:06.850Z,0
2016-12-24T06:32:40.300Z,0
2016-12-24T06:34:33.349Z,0
2016-12-24T06:36:07.461Z,0
2016-12-24T06:37:40.918Z,0
2016-12-24T06:39:14.428Z,0
2016-12-24T06:40:48.188Z,0
2016-12-24T06:42:21.809Z,0
2016-12-24T06:43:55.277Z,0
2016-12-24T06:45:29.426Z,0
2016-12-24T06:47:03.057Z,0
2016-12-24T06:48:36.640Z,0
2016-12-24T06:50:09.980Z,0
2016-12-24T06:51:43.867Z,0
2016-12-24T06:53:17.433Z,0
2016-12-24T06:54:51.100Z,0
2016-12-24T06:56:25.144Z,0
2016-12-24T06:57:58.460Z,0
2016-12-24T06:59:53.930Z,0
2016-12-24T07:01:27.498Z,0
2016-12-24T07:03:01.322Z,0
2016-12-24T07:04:35.093Z,0
2016-12-24T07:06:08.646Z,0
2016-12-24T07:07:37.569Z,0
2016-12-24T07:09:11.278Z,0
2016-12-24T07:10:45.139Z,0
2016-12-24T07:12:19.391Z,0
2016-12-24T07:13:52.769Z,0
2016-12-24T07:15:26.103Z,0
2016-12-24T07:17:00.288Z,0
2016-12-24T07:18:34.113Z,0
2016-12-24T07:20:07.625Z,0
2016-12-24T07:21:35.745Z,0
2016-12-24T07:23:09.985Z,0
2016-12-24T07:24:43.679Z,0
2016-12-24T07:26:17.432Z,0
2016-12-24T07:27:51.412Z,0
2016-12-24T07:29:24.725Z,0
2016-12-24T07:30:58.549Z,0
2016-12-24T07:32:32.986Z,0
2016-12-24T07:34:02.589Z,0
2016-12-24T07:35:36.451Z,0
2016-12-24T07:37:10.673Z,0
2016-12-24T07:38:44.738Z,0
2016-12-24T07:40:18.503Z,0
2016-12-24T07:41:52.765Z,0
2016-12-24T07:43:27.007Z,5
2016-12-24T07:45:20.066Z,5
2016-12-24T07:46:56.412Z,5
2016-12-24T07:48:30.891Z,5
2016-12-24T07:50:04.830Z,5
2016-12-24T07:51:38.507Z,5
2016-12-24T07:53:12.029Z,5
2016-12-24T07:54:45.575Z,5
2016-12-24T07:56:19.546Z,5
2016-12-24T07:57:54.628Z,10
2016-12-24T07:59:28.060Z,10
2016-12-24T08:01:04.682Z,10
2016-12-24T08:02:38.639Z,10
2016-12-24T08:04:11.915Z,10
2016-12-24T08:05:45.518Z,10
2016-12-24T08:07:19.057Z,15
2016-12-24T08:08:49.409Z,20
2016-12-24T08:10:24.505Z,20
2016-12-24T08:12:20.273Z,25
2016-12-24T08:13:54.141Z,30
2016-12-24T08:15:29.068Z,35
2016-12-24T08:17:02.498Z,35
2016-12-24T08:18:37.160Z,30
2016-12-24T08:20:11.604Z,30
2016-12-24T08:21:46.409Z,35
2016-12-24T08:23:39.792Z,45
2016-12-24T08:25:13.980Z,45
2016-12-24T08:26:50.392Z,40
2016-12-24T08:28:25.215Z,35
2016-12-24T08:30:00.216Z,35
2016-12-24T08:31:34.506Z,25
2016-12-24T08:33:08.278Z,25
2016-12-24T08:34:42.216Z,20
2016-12-24T08:36:34.716Z,20
2016-12-24T08:38:10.520Z,20
2016-12-24T08:39:44.044Z,20
2016-12-24T08:41:17.972Z,20
2016-12-24T08:42:51.329Z,20
2016-12-24T08:44:24.652Z,20
2016-12-24T08:45:58.867Z,20
2016-12-24T08:47:32.519Z,25
2016-12-24T08:49:05.972Z,25
2016-12-24T08:50:39.816Z,30
2016-12-24T08:52:14.059Z,30
2016-12-24T08:53:47.686Z,35
2016-12-24T08:55:20.962Z,40
2016-12-24T08:56:54.718Z,45
2016-12-24T08:58:48.481Z,50
2016-12-24T09:00:22.570Z,65
2016-12-24T09:01:56.170Z,70
2016-12-24T09:03:30.614Z,70
2016-12-24T09:05:04.616Z,70
2016-12-24T09:06:38.921Z,80
2016-12-24T09:08:12.520Z,85
2016-12-24T09:09:46.270Z,85
2016-12-24T09:11:20.290Z,95
2016-12-24T09:12:54.478Z,100
2016-12-24T09:14:27.765Z,105
2016-12-24T09:16:01.279Z,105
2016-12-24T09:17:54.841Z,105
2016-12-24T09:19:34.150Z,105
2016-12-24T09:21:11.678Z,105
2016-12-24T09:24:45.913Z,105
2016-12-24T09:28:23.417Z,85
2016-12-24T09:30:18.580Z,85
2016-12-24T09:31:52.953Z,90
2016-12-24T09:33:26.341Z,85
2016-12-24T09:35:02.859Z,95
2016-12-24T09:37:02.905Z,90
2016-12-24T09:38:36.788Z,80
2016-12-24T09:40:10.384Z,85
2016-12-24T09:41:44.161Z,85
2016-12-24T09:43:18.548Z,85
2016-12-24T09:44:52.832Z,80
2016-12-24T09:46:28.113Z,90
2016-12-24T09:48:03.149Z,85
2016-12-24T09:49:36.879Z,85
2016-12-24T09:51:29.658Z,90
2016-12-24T09:53:02.941Z,90
2016-12-24T09:54:37.138Z,90
2016-12-24T09:56:11.032Z,90
2016-12-24T09:57:44.372Z,90
2016-12-24T09:59:17.690Z,90
2016-12-24T10:00:51.648Z,90
2016-12-24T10:02:25.238Z,90
2016-12-24T10:03:58.557Z,90
2016-12-24T10:05:32.256Z,85
2016-12-24T10:07:06.475Z,90
2016-12-24T10:08:40.144Z,90
2016-12-24T10:10:13.469Z,90
2016-12-24T10:11:46.741Z,95
2016-12-24T10:13:15.396Z,95
2016-12-24T10:14:49.005Z,95
2016-12-24T10:16:23.153Z,95
2016-12-24T10:17:58.778Z,95
2016-12-24T10:19:33.044Z,95
2016-12-24T10:21:06.733Z,95
2016-12-24T10:22:40.031Z,95
2016-12-24T10:24:13.716Z,95
2016-12-24T10:26:07.901Z,95
2016-12-24T10:27:42.164Z,95
2016-12-24T10:29:15.425Z,95
2016-12-24T10:30:49.205Z,95
2016-12-24T10:32:23.532Z,100
2016-12-24T10:33:57.808Z,95
2016-12-24T10:35:31.366Z,100
2016-12-24T10:37:05.021Z,100
2016-12-24T10:38:39.126Z,100
2016-12-24T10:40:13.307Z,105
2016-12-24T10:41:46.626Z,100
2016-12-24T10:43:20.210Z,105
2016-12-24T10:44:53.818Z,110
2016-12-24T10:46:27.273Z,110
2016-12-24T10:48:20.550Z,115
2016-12-24T10:49:49.379Z,120
2016-12-24T10:51:04.640Z,110
2016-12-24T10:52:38.291Z,100
2016-12-24T10:54:12.286Z,100
2016-12-24T10:56:04.806Z,95
2016-12-24T10:57:38.992Z,110
2016-12-24T10:59:12.258Z,115
2016-12-24T11:00:45.560Z,90
2016-12-24T11:02:19.223Z,80
2016-12-24T11:03:53.150Z,90
2016-12-24T11:05:21.702Z,90
2016-12-24T11:06:36.203Z,95
2016-12-24T11:08:05.890Z,95
2016-12-24T11:09:40.148Z,105
2016-12-24T11:11:14.463Z,100
2016-12-24T11:12:48.207Z,95
2016-12-24T11:14:41.001Z,70
2016-12-24T11:16:15.135Z,65
2016-12-24T11:17:49.094Z,65
2016-12-24T11:19:29.659Z,65
2016-12-24T11:21:26.577Z,65
2016-12-24T11:23:05.310Z,70
2016-12-24T11:24:36.723Z,75
2016-12-24T11:26:10.710Z,80
2016-12-24T11:27:44.669Z,90
2016-12-24T11:29:19.742Z,95
2016-12-24T11:31:13.310Z,100
2016-12-24T11:32:49.532Z,100
2016-12-24T11:34:21.807Z,85
2016-12-24T11:35:59.782Z,75
2016-12-24T11:37:56.275Z,70
2016-12-24T11:39:32.704Z,60
2016-12-24T11:41:03.296Z,50
2016-12-24T11:42:38.282Z,45
2016-12-24T11:44:14.352Z,45
2016-12-24T11:45:50.501Z,40
2016-12-24T11:47:45.590Z,55
2016-12-24T11:49:21.055Z,80
2016-12-24T11:50:58.316Z,90
2016-12-24T11:52:34.617Z,95
2016-12-24T11:54:28.785Z,100
2016-12-24T11:56:03.654Z,95
2016-12-24T11:57:35.780Z,100
2016-12-24T11:59:09.548Z,110
2016-12-24T12:00:49.089Z,110
2016-12-24T12:02:47.227Z,105
2016-12-24T12:04:24.285Z,105
2016-12-24T12:05:59.472Z,100
2016-12-24T12:07:33.700Z,100
2016-12-24T12:09:07.264Z,105
2016-12-24T12:10:37.350Z,115
2016-12-24T12:12:11.163Z,110
2016-12-24T12:13:45.407Z,110
2016-12-24T12:15:19.286Z,110
2016-12-24T12:17:12.110Z,110
2016-12-24T12:18:45.799Z,110
2016-12-24T12:20:26.339Z,110
2016-12-24T12:22:01.942Z,95
2016-12-24T12:23:35.400Z,85
2016-12-24T12:25:28.169Z,90
2016-12-24T12:27:02.294Z,80
2016-12-24T12:28:35.638Z,85
2016-12-24T12:30:05.556Z,85
2016-12-24T12:31:19.890Z,90
2016-12-24T12:33:12.922Z,85
2016-12-24T12:35:24.027Z,85
2016-12-24T12:36:58.319Z,80
2016-12-24T12:38:29.969Z,85
2016-12-24T12:40:04.613Z,80
2016-12-24T12:41:38.733Z,75
2016-12-24T12:43:32.788Z,70
2016-12-24T12:45:10.419Z,65
2016-12-24T12:46:44.088Z,80
2016-12-24T12:48:18.603Z,75
2016-12-24T12:49:52.267Z,80
2016-12-24T12:51:25.990Z,80
2016-12-24T12:53:00.256Z,80
2016-12-24T12:54:33.640Z,90
2016-12-24T12:56:07.142Z,85
2016-12-24T12:57:41.429Z,80
2016-12-24T12:59:35.357Z,65
2016-12-24T13:01:09.167Z,55
2016-12-24T13:02:42.857Z,55
2016-12-24T13:04:16.917Z,60
2016-12-24T13:06:18.413Z,65
2016-12-24T13:07:51.855Z,70
2016-12-24T13:09:26.293Z,70
2016-12-24T13:11:00.091Z,60
2016-12-24T13:12:33.784Z,60
2016-12-24T13:14:08.029Z,60
2016-12-24T13:15:43.009Z,60
2016-12-24T13:17:16.825Z,60
2016-12-24T13:18:50.232Z,60
2016-12-24T13:20:24.267Z,60
2016-12-24T13:21:58.360Z,60
2016-12-24T13:23:51.468Z,55
2016-12-24T13:25:25.312Z,55
2016-12-24T13:26:59.681Z,55
2016-12-24T13:28:35.903Z,60
2016-12-24T13:30:12.318Z,60
2016-12-24T13:32:13.774Z,55
2016-12-24T13:33:49.737Z,55
2016-12-24T13:35:24.011Z,60
2016-12-24T13:37:20.106Z,60
2016-12-24T13:38:56.639Z,60
2016-12-24T13:40:32.947Z,60
2016-12-24T13:42:23.918Z,60
2016-12-24T13:43:59.997Z,60
2016-12-24T13:45:35.995Z,55
2016-12-24T13:47:10.886Z,55
2016-12-24T13:48:48.746Z,60
2016-12-24T13:50:46.681Z,60
2016-12-24T13:52:22.399Z,60
2016-12-24T13:53:58.601Z,60
2016-12-24T13:55:54.142Z,55
2016-12-24T13:57:27.733Z,55
2016-12-24T13:59:04.960Z,55
2016-12-24T14:00:40.062Z,55
2016-12-24T14:02:36.058Z,50
2016-12-24T14:04:12.328Z,50
2016-12-24T14:05:49.331Z,50
2016-12-24T14:07:26.066Z,50
2016-12-24T14:09:22.894Z,50
2016-12-24T14:10:53.858Z,45
2016-12-24T14:12:31.230Z,45
2016-12-24T14:14:07.457Z,45
2016-12-24T14:16:02.971Z,40
2016-12-24T14:17:39.260Z,40
2016-12-24T14:19:18.020Z,40
2016-12-24T14:21:12.977Z,40
2016-12-24T14:22:48.310Z,35
2016-12-24T14:24:24.746Z,35
2016-12-24T14:25:55.384Z,35
2016-12-24T14:27:31.038Z,35
2016-12-24T14:29:07.076Z,35
2016-12-24T14:30:41.573Z,30
2016-12-24T14:32:37.268Z,30
2016-12-24T14:34:14.048Z,30
2016-12-24T14:35:48.962Z,30
2016-12-24T14:37:44.507Z,25
2016-12-24T14:39:20.029Z,25
2016-12-24T14:40:55.109Z,25
2016-12-24T14:42:30.220Z,25
2016-12-24T14:44:05.873Z,25
2016-12-24T14:46:01.717Z,20
2016-12-24T14:47:38.568Z,20
2016-12-24T14:49:15.928Z,20
2016-12-24T14:51:11.506Z,20
2016-12-24T14:52:48.593Z,15
2016-12-24T14:54:20.837Z,15
2016-12-24T14:55:51.232Z,15
2016-12-24T14:57:26.333Z,15
2016-12-24T14:58:58.266Z,15
2016-12-24T15:00:35.445Z,15
2016-12-24T15:02:11.017Z,10
2016-12-24T15:03:45.396Z,10
2016-12-24T15:05:15.592Z,10
2016-12-24T15:07:10.983Z,10
2016-12-24T15:08:45.195Z,10
2016-12-24T15:10:24.693Z,5
2016-12-24T15:12:00.554Z,5
2016-12-24T15:13:34.430Z,5
2016-12-24T15:15:06.122Z,5
2016-12-24T15:16:40.559Z,5
2016-12-24T15:18:34.518Z,5
2016-12-24T15:20:08.880Z,5
2016-12-24T15:22:16.056Z,0
2016-12-24T15:24:15.323Z,0
2016-12-24T15:25:51.606Z,0
2016-12-24T15:27:26.683Z,0
2016-12-24T15:29:01.496Z,0
2016-12-24T15:30:58.773Z,0
2016-12-24T15:32:36.081Z,0
2016-12-24T15:34:12.251Z,0
2016-12-24T15:36:07.194Z,0
2016-12-24T15:37:43.956Z,0
2016-12-24T15:39:20.506Z,0
2016-12-24T15:40:56.082Z,0
2016-12-24T15:42:30.538Z,0
2016-12-24T15:44:01.208Z,0
2016-12-24T15:45:35.596Z,0
2016-12-24T15:47:36.847Z,0
2016-12-24T15:49:12.408Z,0
2016-12-24T15:51:07.175Z,0
2016-12-24T15:52:44.346Z,0
2016-12-24T15:54:19.705Z,0
2016-12-24T15:55:54.734Z,0
2016-12-24T15:57:51.776Z,0
2016-12-24T15:59:28.472Z,0
2016-12-24T16:01:03.520Z,0
2016-12-24T16:02:59.344Z,0
2016-12-24T16:04:36.501Z,0
2016-12-24T16:06:10.670Z,0
2016-12-24T16:07:48.192Z,0
2016-12-24T16:09:39.748Z,0
2016-12-24T16:11:17.598Z,0
2016-12-24T16:12:52.546Z,0
2016-12-24T16:14:29.796Z,0
2016-12-24T16:16:04.580Z,0
2016-12-24T16:17:38.033Z,0
2016-12-24T16:19:32.393Z,0
2016-12-24T16:21:07.671Z,0
2016-12-24T16:22:43.832Z,0
2016-12-24T16:24:13.955Z,0
2016-12-24T16:25:49.340Z,0
2016-12-24T16:27:27.288Z,0
2016-12-24T16:29:21.125Z,0
2016-12-24T16:30:58.280Z,0
2016-12-24T16:32:33.263Z,0
2016-12-24T16:34:11.327Z,0
2016-12-24T16:35:46.566Z,0
2016-12-24T16:37:42.649Z,0
2016-12-24T16:39:43.109Z,0
2016-12-24T16:41:53.734Z,0
2016-12-24T16:43:51.850Z,0
2016-12-24T16:45:27.617Z,0
2016-12-24T16:47:01.930Z,0
2016-12-24T16:48:37.320Z,0
2016-12-24T16:50:13.721Z,0
2016-12-24T16:52:13.847Z,0
2016-12-24T16:53:47.804Z,0
2016-12-24T16:55:21.986Z,0
2016-12-24T16:57:17.072Z,0
2016-12-24T16:58:54.459Z,0
2016-12-24T17:00:29.178Z,0
2016-12-24T17:02:05.002Z,0
2016-12-24T17:03:40.651Z,0
2016-12-24T17:05:32.984Z,0
2016-12-24T17:07:09.867Z,0
2016-12-24T17:08:47.095Z,0
2016-12-24T17:10:50.115Z,0
2016-12-24T17:12:26.091Z,0
2016-12-24T17:14:16.915Z,0
2016-12-24T17:15:53.157Z,0
2016-12-24T17:17:23.535Z,0
2016-12-24T17:19:02.513Z,0
2016-12-24T17:20:38.370Z,0
2016-12-24T17:22:13.556Z,0
2016-12-24T17:23:48.062Z,0
2016-12-24T17:25:42.587Z,0
2016-12-24T17:27:16.470Z,0
2016-12-24T17:28:52.517Z,0
2016-12-24T17:30:27.700Z,0
2016-12-24T17:32:03.845Z,0
2016-12-24T17:33:38.718Z,0
2016-12-24T17:35:09.391Z,0
2016-12-24T17:36:43.266Z,0
2016-12-24T17:38:39.868Z,0
2016-12-24T17:40:09.944Z,0
2016-12-24T17:41:40.060Z,0
2016-12-24T17:42:55.038Z,0
2016-12-24T17:44:29.032Z,0
2016-12-24T17:46:26.506Z,0
2016-12-24T17:48:02.302Z,0
2016-12-24T17:49:38.678Z,0
2016-12-24T17:51:33.122Z,0
2016-12-24T17:53:09.485Z,0
2016-12-24T17:54:45.646Z,0
2016-12-24T17:56:43.069Z,0
2016-12-24T17:58:23.085Z,0
2016-12-24T18:00:26.382Z,0
2016-12-24T18:02:24.973Z,0
2016-12-24T18:04:02.465Z,0
2016-12-24T18:05:38.596Z,0
2016-12-24T18:07:40.046Z,0
2016-12-24T18:09:13.883Z,0
2016-12-24T18:11:07.056Z,0
2016-12-24T18:12:49.086Z,0
2016-12-24T18:14:26.147Z,0
2016-12-24T18:16:00.786Z,0
2016-12-24T18:17:57.607Z,0
2016-12-24T18:19:31.103Z,0
2016-12-24T18:21:08.931Z,0
2016-12-24T18:22:43.321Z,0
2016-12-24T18:24:40.544Z,0
2016-12-24T18:26:16.694Z,0
2016-12-24T18:28:15.329Z,0
2016-12-24T18:29:50.844Z,0
2016-12-24T18:31:26.291Z,0
2016-12-24T18:33:25.673Z,0
2016-12-24T18:35:01.337Z,0
2016-12-24T18:36:58.692Z,0
2016-12-24T18:40:38.658Z,0
2016-12-24T18:42:14.017Z,0
2016-12-24T18:44:16.803Z,0
2016-12-24T18:45:53.682Z,0
2016-12-24T18:47:29.111Z,0
2016-12-24T18:49:04.168Z,0
2016-12-24T18:50:58.335Z,0
2016-12-24T18:52:34.650Z,0
2016-12-24T18:54:08.075Z,0
2016-12-24T18:55:41.510Z,0
2016-12-24T18:57:15.118Z,0
2016-12-24T18:58:49.285Z,0
2016-12-24T19:00:23.481Z,0
2016-12-24T19:01:51.920Z,0
2016-12-24T19:03:25.984Z,0
2016-12-24T19:06:36.632Z,0
2016-12-24T19:08:10.394Z,0
2016-12-24T19:09:44.489Z,0
2016-12-24T19:11:37.816Z,0
2016-12-24T19:13:11.901Z,0
2016-12-24T19:14:45.227Z,0
2016-12-24T19:16:18.936Z,0
2016-12-24T19:17:52.781Z,0
2016-12-24T19:19:26.971Z,0
2016-12-24T19:21:00.341Z,0
2016-12-24T19:22:34.510Z,0
2016-12-24T19:24:08.527Z,0
2016-12-24T19:25:42.280Z,0
2016-12-24T19:27:15.666Z,0
2016-12-24T19:28:44.473Z,0
2016-12-24T19:30:18.578Z,0
2016-12-24T19:31:47.900Z,0
2016-12-24T19:33:21.996Z,0
2016-12-24T19:34:55.848Z,0
2016-12-24T19:36:29.559Z,0
2016-12-24T19:38:03.339Z,0
2016-12-24T19:39:37.339Z,0
2016-12-24T19:41:11.412Z,0
2016-12-24T19:42:45.970Z,0
2016-12-24T19:44:19.968Z,0
2016-12-24T19:45:53.878Z,0
2016-12-24T19:47:27.798Z,0
2016-12-24T19:49:20.629Z,0
2016-12-24T19:50:53.946Z,0
2016-12-24T19:52:27.288Z,0
2016-12-24T19:54:01.207Z,0
2016-12-24T19:55:35.143Z,0
2016-12-24T19:57:08.915Z,0
2016-12-24T19:58:43.756Z,0
2016-12-24T20:00:17.331Z,0
2016-12-24T20:01:51.914Z,0
2016-12-24T20:03:25.668Z,0
2016-12-24T20:04:59.873Z,0
2016-12-24T20:06:33.857Z,0
2016-12-24T20:08:07.557Z,0
2016-12-24T20:10:00.898Z,0
2016-12-24T20:11:34.420Z,0
2016-12-24T20:13:03.108Z,0
2016-12-24T20:14:18.059Z,0
2016-12-24T20:15:51.934Z,0
2016-12-24T20:17:25.983Z,0
2016-12-24T20:18:57.154Z,0
2016-12-24T20:20:51.405Z,0
2016-12-24T20:22:21.214Z,0
2016-12-24T20:23:35.666Z,0
2016-12-24T20:25:10.247Z,0
2016-12-24T20:27:03.474Z,0
2016-12-24T20:28:37.670Z,0
2016-12-24T20:30:13.728Z,0
2016-12-24T20:31:48.501Z,0
2016-12-24T20:33:23.274Z,0
2016-12-24T20:34:57.221Z,0
2016-12-24T20:36:32.771Z,0
2016-12-24T20:38:02.925Z,0
2016-12-24T20:39:37.132Z,0
2016-12-24T20:41:10.971Z,0
2016-12-24T20:43:04.714Z,0
2016-12-24T20:44:38.709Z,0
2016-12-24T20:46:13.073Z,0
2016-12-24T20:47:47.364Z,0
2016-12-24T20:49:21.239Z,0
2016-12-24T20:50:55.362Z,0
2016-12-24T20:52:29.519Z,0
2016-12-24T20:54:03.913Z,0
2016-12-24T20:55:37.766Z,0
2016-12-24T20:57:11.882Z,0
2016-12-24T20:58:45.952Z,0
2016-12-24T21:00:39.403Z,0
2016-12-24T21:02:14.090Z,0
2016-12-24T21:03:48.258Z,0
2016-12-24T21:05:21.928Z,0
2016-12-24T21:06:55.510Z,0
2016-12-24T21:08:29.087Z,0
2016-12-24T21:10:03.020Z,0
2016-12-24T21:11:37.145Z,0
2016-12-24T21:13:11.354Z,0
2016-12-24T21:14:41.492Z,0
2016-12-24T21:16:16.605Z,0
2016-12-24T21:17:45.319Z,0
2016-12-24T21:19:13.772Z,0
2016-12-24T21:20:49.202Z,0
2016-12-24T21:22:26.201Z,0
2016-12-24T21:23:54.671Z,0
2016-12-24T21:25:28.000Z,0
2016-12-24T21:27:01.767Z,0
2016-12-24T21:28:35.889Z,0
2016-12-24T21:30:09.272Z,0
2016-12-24T21:31:43.438Z,0
2016-12-24T21:33:17.052Z,0
2016-12-24T21:34:51.234Z,0
2016-12-24T21:36:24.844Z,0
2016-12-24T21:37:59.523Z,0
2016-12-24T21:39:33.908Z,0
2016-12-24T21:41:08.070Z,0
2016-12-24T21:42:37.987Z,0
2016-12-24T21:44:12.346Z,0
2016-12-24T21:45:45.966Z,0
2016-12-24T21:47:19.987Z,0
2016-12-24T21:49:12.533Z,0
2016-12-24T21:50:46.288Z,0
2016-12-24T21:52:19.863Z,0
2016-12-24T21:53:48.213Z,0
2016-12-24T21:55:02.337Z,0
2016-12-24T21:56:35.885Z,0
2016-12-24T21:58:09.460Z,0
2016-12-24T21:59:43.283Z,0
2016-12-24T22:01:16.995Z,0
2016-12-24T22:03:09.889Z,0
2016-12-24T22:04:43.915Z,0
2016-12-24T22:06:17.425Z,0
2016-12-24T22:07:54.022Z,0
2016-12-24T22:09:27.691Z,0
2016-12-24T22:11:01.680Z,0
2016-12-24T22:12:35.592Z,0
2016-12-24T22:14:04.038Z,0
2016-12-24T22:15:37.299Z,0
2016-12-24T22:17:10.968Z,0
2016-12-24T22:18:45.499Z,0
2016-12-24T22:20:18.801Z,0
2016-12-24T22:21:52.235Z,0
2016-12-24T22:23:26.408Z,0
2016-12-24T22:24:59.929Z,0
2016-12-24T22:26:33.687Z,0
2016-12-24T22:28:07.426Z,0
2016-12-24T22:29:41.014Z,0
2016-12-24T22:31:14.642Z,0
2016-12-24T22:32:48.181Z,0
2016-12-24T22:34:22.098Z,0
2016-12-24T22:35:55.712Z,0
2016-12-24T22:37:29.324Z,0
2016-12-24T22:39:23.827Z,0
2016-12-24T22:40:57.371Z,0
2016-12-24T22:42:31.724Z,0
2016-12-24T22:44:05.035Z,0
2016-12-24T22:45:38.742Z,0
2016-12-24T22:47:13.436Z,0
2016-12-24T22:48:47.362Z,0
2016-12-24T22:50:20.937Z,0
2016-12-24T22:51:54.907Z,0
2016-12-24T22:53:23.181Z,0
2016-12-24T22:54:57.150Z,0
2016-12-24T22:56:31.006Z,0
2016-12-24T22:58:05.193Z,0
2016-12-24T22:59:38.503Z,0
2016-12-24T23:01:12.539Z,0
2016-12-24T23:02:41.217Z,0
2016-12-24T23:04:16.489Z,0
2016-12-24T23:05:50.398Z,0
2016-12-24T23:07:24.274Z,0
2016-12-24T23:08:53.211Z,0
2016-12-24T23:10:26.666Z,0
2016-12-24T23:12:00.316Z,0
2016-12-24T23:13:33.832Z,0
2016-12-24T23:15:07.367Z,0
2016-12-24T23:16:40.690Z,0
2016-12-24T23:18:16.957Z,0
2016-12-24T23:19:50.565Z,0
2016-12-24T23:21:19.246Z,0
2016-12-24T23:22:53.333Z,0
2016-12-24T23:24:27.403Z,0
2016-12-24T23:26:01.218Z,0
2016-12-24T23:27:35.276Z,0
2016-12-24T23:29:08.778Z,0
2016-12-24T23:30:42.505Z,0
2016-12-24T23:32:17.640Z,0
2016-12-24T23:34:11.534Z,0
2016-12-24T23:35:45.537Z,0